Terminal Aerodrome Forecast
Issued by NWS

Home | Current Version | Previous Version | Graphics & Text | Print | Product List | Glossary On
Versions: 1 2 3 4 5 6 7 8 9 10 11 12 13 14 15 16 17 18
000
FTUS43 KICT 311138
TAFHUT
TAF
KHUT 311138Z 3112/0112 01008KT 5SM -RA BKN080 OVC100
     FM311500 VRB06KT P6SM BKN025
     FM311800 11006KT P6SM VCTS BKN040CB
     FM010200 02010KT P6SM SCT040=

USA.gov is the U.S. government's official web portal to all federal, state and local government web resources and services.